createdAt,value
2019-05-06T00:01:44.244Z,101567.98
2019-05-06T00:04:14.100Z,101574.49
2019-05-06T00:06:45.395Z,101562.49
2019-05-06T00:09:17.646Z,101566.55
2019-05-06T00:11:48.872Z,101566.53
2019-05-06T00:14:20.057Z,101566.09
2019-05-06T00:16:51.213Z,101565.53
2019-05-06T00:19:24.484Z,101561.94
2019-05-06T00:21:55.324Z,101559.69
2019-05-06T00:24:29.612Z,101558.28
2019-05-06T00:27:08.316Z,101549.63
2019-05-06T00:29:39.457Z,101559.03
2019-05-06T00:32:10.655Z,101555.92
2019-05-06T00:34:43.653Z,101557.15
2019-05-06T00:37:14.749Z,101561.14
2019-05-06T00:39:57.697Z,101559.75
2019-05-06T00:42:41.243Z,101555.97
2019-05-06T00:45:13.782Z,101557.00
2019-05-06T00:47:44.992Z,101563.27
2019-05-06T00:50:16.539Z,101565.50
2019-05-06T00:52:48.022Z,101566.92
2019-05-06T00:55:19.204Z,101566.52
2019-05-06T00:57:50.636Z,101567.39
2019-05-06T01:00:28.586Z,101565.82
2019-05-06T01:02:59.856Z,101562.25
2019-05-06T01:05:31.074Z,101555.97
2019-05-06T01:08:04.044Z,101557.66
2019-05-06T01:10:35.346Z,101560.57
2019-05-06T01:13:24.121Z,101556.92
2019-05-06T01:15:55.102Z,101560.77
2019-05-06T01:18:26.401Z,101564.80
2019-05-06T01:21:14.489Z,101570.99
2019-05-06T01:23:47.647Z,101566.07
2019-05-06T01:26:19.208Z,101570.01
2019-05-06T01:28:50.478Z,101566.81
2019-05-06T01:31:21.660Z,101570.13
2019-05-06T01:33:53.571Z,101561.02
2019-05-06T01:36:25.144Z,101561.80
2019-05-06T01:39:14.170Z,101565.25
2019-05-06T01:42:01.127Z,101564.26
2019-05-06T01:44:33.939Z,101557.29
2019-05-06T01:47:05.391Z,101557.20
2019-05-06T01:49:36.617Z,101559.09
2019-05-06T01:52:07.874Z,101555.34
2019-05-06T01:54:39.101Z,101554.12
2019-05-06T01:57:10.339Z,101554.61
2019-05-06T01:59:41.496Z,101559.09
2019-05-06T02:02:14.333Z,101557.20
2019-05-06T02:04:45.657Z,101559.83
2019-05-06T02:07:16.866Z,101562.25
2019-05-06T02:09:48.101Z,101565.21
2019-05-06T02:12:19.323Z,101564.84
2019-05-06T02:14:50.546Z,101557.61
2019-05-06T02:17:23.765Z,101560.81
2019-05-06T02:19:54.781Z,101560.11
2019-05-06T02:22:54.042Z,101563.31
2019-05-06T02:25:29.465Z,101556.91
2019-05-06T02:28:00.711Z,101562.46
2019-05-06T02:30:56.784Z,101562.98
2019-05-06T02:33:58.858Z,101560.17
2019-05-06T02:36:57.799Z,101556.05
2019-05-06T02:39:29.046Z,101559.98
2019-05-06T02:42:00.285Z,101561.48
2019-05-06T02:44:33.625Z,101562.80
2019-05-06T02:47:13.719Z,101562.96
2019-05-06T02:49:57.712Z,101565.87
2019-05-06T02:52:28.951Z,101555.67
2019-05-06T02:55:00.202Z,101555.75
2019-05-06T02:57:33.467Z,101555.67
2019-05-06T03:00:05.477Z,101554.78
2019-05-06T03:02:43.278Z,101555.38
2019-05-06T03:05:12.864Z,101549.52
2019-05-06T03:07:43.614Z,101554.42
2019-05-06T03:10:17.003Z,101554.74
2019-05-06T03:12:48.108Z,101547.92
2019-05-06T03:15:19.397Z,101553.83
2019-05-06T03:17:50.584Z,101553.31
2019-05-06T03:20:48.722Z,101552.28
2019-05-06T03:23:23.728Z,101548.42
2019-05-06T03:25:54.441Z,101542.91
2019-05-06T03:28:25.712Z,101545.98
2019-05-06T03:30:57.293Z,101542.91
2019-05-06T03:33:45.730Z,101548.81
2019-05-06T03:36:15.175Z,101548.64
2019-05-06T03:38:34.334Z,101540.83
2019-05-06T03:41:05.580Z,101544.67
2019-05-06T03:43:36.806Z,101541.55
2019-05-06T03:46:33.625Z,101538.06
2019-05-06T03:49:06.229Z,101540.30
2019-05-06T03:51:37.449Z,101538.62
2019-05-06T03:54:08.607Z,101534.33
2019-05-06T03:56:43.148Z,101536.11
2019-05-06T03:59:15.821Z,101534.52
2019-05-06T04:01:46.986Z,101535.23
2019-05-06T04:04:18.194Z,101543.83
2019-05-06T04:06:49.546Z,101534.70
2019-05-06T04:09:23.807Z,101542.01
2019-05-06T04:11:54.405Z,101540.86
2019-05-06T04:14:27.851Z,101542.39
2019-05-06T04:17:07.326Z,101538.72
2019-05-06T04:19:49.489Z,101542.89
2019-05-06T04:22:26.613Z,101541.72
2019-05-06T04:25:28.917Z,101538.81
2019-05-06T04:28:07.576Z,101547.08
2019-05-06T04:30:38.806Z,101542.61
2019-05-06T04:33:16.319Z,101539.30
2019-05-06T04:35:43.535Z,101545.36
2019-05-06T04:38:14.818Z,101542.89
2019-05-06T04:40:46.120Z,101539.83
2019-05-06T04:43:17.504Z,101539.56
2019-05-06T04:45:48.686Z,101543.32
2019-05-06T04:48:19.905Z,101546.29
2019-05-06T04:50:53.654Z,101548.23
2019-05-06T04:53:27.067Z,101550.11
2019-05-06T04:55:57.343Z,101551.06
2019-05-06T04:58:28.593Z,101552.09
2019-05-06T05:00:59.808Z,101557.56
2019-05-06T05:03:33.609Z,101544.36
2019-05-06T05:06:05.785Z,101546.56
2019-05-06T05:08:38.303Z,101549.08
2019-05-06T05:11:29.808Z,101548.52
2019-05-06T05:14:25.837Z,101548.44
2019-05-06T05:17:16.398Z,101546.01
2019-05-06T05:19:47.644Z,101548.37
2019-05-06T05:22:18.793Z,101547.41
2019-05-06T05:24:51.954Z,101547.11
2019-05-06T05:27:23.943Z,101552.13
2019-05-06T05:29:55.427Z,101551.12
2019-05-06T05:32:27.074Z,101556.80
2019-05-06T05:34:58.637Z,101555.89
2019-05-06T05:37:29.798Z,101550.45
2019-05-06T05:40:03.001Z,101550.80
2019-05-06T05:42:59.539Z,101559.37
2019-05-06T05:45:32.692Z,101562.52
2019-05-06T05:48:08.479Z,101562.59
2019-05-06T05:50:42.114Z,101560.61
2019-05-06T05:53:13.296Z,101561.12
2019-05-06T05:55:44.641Z,101560.80
2019-05-06T05:58:16.713Z,101564.77
2019-05-06T06:00:47.975Z,101567.06
2019-05-06T06:03:19.233Z,101571.64
2019-05-06T06:05:52.081Z,101563.97
2019-05-06T06:08:24.829Z,101566.14
2019-05-06T06:11:00.997Z,101564.56
2019-05-06T06:13:32.296Z,101564.33
2019-05-06T06:16:20.878Z,101560.98
2019-05-06T06:19:22.101Z,101558.80
2019-05-06T06:22:05.127Z,101561.19
2019-05-06T06:24:37.169Z,101559.72
2019-05-06T06:27:08.408Z,101563.31
2019-05-06T06:29:41.708Z,101567.02
2019-05-06T06:32:23.943Z,101558.67
2019-05-06T06:35:14.875Z,101553.60
2019-05-06T06:38:13.904Z,101554.76
2019-05-06T06:40:45.143Z,101550.13
2019-05-06T06:43:20.517Z,101555.08
2019-05-06T06:45:53.122Z,101555.84
2019-05-06T06:48:24.531Z,101564.98
2019-05-06T06:50:56.889Z,101561.45
2019-05-06T06:53:28.465Z,101557.00
2019-05-06T06:56:18.634Z,101556.81
2019-05-06T06:59:08.477Z,101557.47
2019-05-06T07:01:55.327Z,101548.39
2019-05-06T07:04:39.999Z,101553.67
2019-05-06T07:07:13.161Z,101556.05
2019-05-06T07:09:44.349Z,101553.02
2019-05-06T07:12:15.636Z,101557.25
2019-05-06T07:14:46.758Z,101553.27
2019-05-06T07:17:18.007Z,101557.22
2019-05-06T07:19:53.552Z,101557.47
2019-05-06T07:22:29.279Z,101548.63
2019-05-06T07:25:03.771Z,101550.43
2019-05-06T07:27:33.324Z,101547.16
2019-05-06T07:30:06.137Z,101551.96
2019-05-06T07:32:37.396Z,101549.28
2019-05-06T07:35:09.063Z,101548.19
2019-05-06T07:37:42.279Z,101552.42
2019-05-06T07:40:13.542Z,101552.73
2019-05-06T07:42:48.209Z,101552.06
2019-05-06T07:45:44.483Z,101546.71
2019-05-06T07:48:16.940Z,101544.45
2019-05-06T07:50:49.275Z,101543.20
2019-05-06T07:53:22.380Z,101538.52
2019-05-06T07:55:53.493Z,101541.63
2019-05-06T07:58:24.711Z,101542.45
2019-05-06T08:00:56.009Z,101547.38
2019-05-06T08:03:27.224Z,101549.01
2019-05-06T08:05:58.968Z,101544.92
2019-05-06T08:08:30.136Z,101538.87
2019-05-06T08:11:02.742Z,101543.41
2019-05-06T08:13:33.936Z,101542.51
2019-05-06T08:16:05.586Z,101542.09
2019-05-06T08:18:36.829Z,101539.43
2019-05-06T08:21:16.414Z,101529.99
2019-05-06T08:23:52.140Z,101530.18
2019-05-06T08:26:22.706Z,101526.95
2019-05-06T08:28:53.921Z,101521.42
2019-05-06T08:31:25.142Z,101526.78
2019-05-06T08:33:56.455Z,101526.07
2019-05-06T08:36:36.795Z,101520.58
2019-05-06T08:39:08.989Z,101522.98
2019-05-06T08:41:42.210Z,101515.28
2019-05-06T08:44:13.035Z,101510.55
2019-05-06T08:46:44.308Z,101512.52
2019-05-06T08:49:15.574Z,101509.62
2019-05-06T08:52:12.960Z,101502.55
2019-05-06T08:54:50.265Z,101499.09
2019-05-06T08:57:22.784Z,101502.01
2019-05-06T08:59:54.079Z,101513.52
2019-05-06T09:02:25.308Z,101512.14
2019-05-06T09:04:56.760Z,101508.56
2019-05-06T09:07:28.017Z,101509.53
2019-05-06T09:09:59.300Z,101515.38
2019-05-06T09:12:32.812Z,101515.64
2019-05-06T09:15:03.778Z,101516.99
2019-05-06T09:17:35.103Z,101519.90
2019-05-06T09:20:06.826Z,101515.09
2019-05-06T09:22:38.076Z,101519.34
2019-05-06T09:25:12.874Z,101512.61
2019-05-06T09:28:02.542Z,101511.71
2019-05-06T09:30:43.277Z,101515.45
2019-05-06T09:33:17.126Z,101515.48
2019-05-06T09:35:48.387Z,101508.66
2019-05-06T09:38:19.613Z,101507.45
2019-05-06T09:40:52.548Z,101492.47
2019-05-06T09:43:23.942Z,101508.41
2019-05-06T09:45:55.193Z,101508.18
2019-05-06T09:48:45.160Z,101500.53
2019-05-06T09:51:16.384Z,101494.77
2019-05-06T09:54:05.211Z,101508.73
2019-05-06T09:56:58.842Z,101498.69
2019-05-06T09:59:32.056Z,101499.72
2019-05-06T10:02:03.053Z,101499.94
2019-05-06T10:04:34.342Z,101500.80
2019-05-06T10:07:05.628Z,101498.89
2019-05-06T10:09:36.807Z,101496.16
2019-05-06T10:12:08.060Z,101497.48
2019-05-06T10:14:43.273Z,101494.38
2019-05-06T10:17:14.035Z,101500.73
2019-05-06T10:19:45.435Z,101495.42
2019-05-06T10:22:16.666Z,101487.14
2019-05-06T10:24:47.971Z,101487.50
2019-05-06T10:27:19.184Z,101479.78
2019-05-06T10:30:03.245Z,101491.19
2019-05-06T10:32:52.906Z,101486.00
2019-05-06T10:35:27.818Z,101493.86
2019-05-06T10:38:30.869Z,101500.12
2019-05-06T10:41:07.788Z,101499.52
2019-05-06T10:44:49.103Z,101505.23
2019-05-06T10:47:22.503Z,101492.52
2019-05-06T10:49:53.147Z,101500.22
2019-05-06T10:52:28.780Z,101490.03
2019-05-06T10:55:00.001Z,101485.49
2019-05-06T10:57:43.094Z,101481.46
2019-05-06T11:00:14.571Z,101480.81
2019-05-06T11:02:54.890Z,101480.11
2019-05-06T11:05:26.112Z,101480.11
2019-05-06T11:08:06.730Z,101483.16
2019-05-06T11:10:45.324Z,101473.11
2019-05-06T11:13:24.351Z,101474.63
2019-05-06T11:16:03.439Z,101475.95
2019-05-06T11:18:35.977Z,101473.13
2019-05-06T11:21:17.767Z,101474.77
2019-05-06T11:23:52.469Z,101475.95
2019-05-06T11:26:27.560Z,101472.62
2019-05-06T11:29:05.125Z,101469.78
2019-05-06T11:32:09.663Z,101471.55
2019-05-06T11:34:59.942Z,101466.24
2019-05-06T11:38:01.552Z,101471.16
2019-05-06T11:40:42.100Z,101478.16
2019-05-06T11:43:15.596Z,101476.97
2019-05-06T11:45:47.857Z,101473.08
2019-05-06T11:48:19.080Z,101471.63
2019-05-06T11:50:51.907Z,101465.69
2019-05-06T11:53:23.311Z,101455.19
2019-05-06T11:55:55.082Z,101461.41
2019-05-06T11:58:42.815Z,101455.52
2019-05-06T12:01:20.100Z,101460.34
2019-05-06T12:03:52.240Z,101460.19
2019-05-06T12:06:23.520Z,101461.45
2019-05-06T12:08:57.938Z,101455.42
2019-05-06T12:11:30.273Z,101461.88
2019-05-06T12:14:02.602Z,101462.06
2019-05-06T12:16:33.948Z,101464.83
2019-05-06T12:19:05.388Z,101458.59
2019-05-06T12:21:36.757Z,101460.47
2019-05-06T12:24:08.021Z,101464.02
2019-05-06T12:26:39.229Z,101461.08
2019-05-06T12:29:12.518Z,101456.50
2019-05-06T12:31:43.403Z,101462.41
2019-05-06T12:34:14.827Z,101462.74
2019-05-06T12:36:47.592Z,101456.38
2019-05-06T12:39:37.165Z,101449.18
2019-05-06T12:42:34.159Z,101454.37
2019-05-06T12:45:37.562Z,101449.38
2019-05-06T12:48:25.521Z,101458.73
2019-05-06T12:50:58.464Z,101445.34
2019-05-06T12:53:29.703Z,101452.38
2019-05-06T12:56:03.301Z,101445.00
2019-05-06T12:58:34.624Z,101445.33
2019-05-06T13:01:06.480Z,101442.30
2019-05-06T13:03:37.717Z,101437.91
2019-05-06T13:06:09.402Z,101443.27
2019-05-06T13:08:56.498Z,101451.67
2019-05-06T13:11:14.351Z,101449.97
2019-05-06T13:13:56.557Z,101434.38
2019-05-06T13:16:19.175Z,101433.24
2019-05-06T13:18:52.492Z,101433.20
2019-05-06T13:21:23.151Z,101430.20
2019-05-06T13:24:01.519Z,101428.02
2019-05-06T13:26:32.542Z,101417.31
2019-05-06T13:29:09.929Z,101418.03
2019-05-06T13:31:43.578Z,101416.83
2019-05-06T13:34:19.010Z,101423.53
2019-05-06T13:36:53.024Z,101428.99
2019-05-06T13:39:23.937Z,101426.60
2019-05-06T13:41:55.252Z,101418.88
2019-05-06T13:44:26.485Z,101425.58
2019-05-06T13:46:57.729Z,101425.36
2019-05-06T13:49:47.703Z,101419.92
2019-05-06T13:52:23.062Z,101421.89
2019-05-06T13:54:54.269Z,101416.56
2019-05-06T13:57:28.825Z,101425.73
2019-05-06T13:59:58.410Z,101424.56
2019-05-06T14:02:48.719Z,101419.59
2019-05-06T14:05:20.302Z,101417.57
2019-05-06T14:07:52.784Z,101416.42
2019-05-06T14:10:24.342Z,101417.76
2019-05-06T14:12:55.552Z,101410.07
2019-05-06T14:15:26.833Z,101405.86
2019-05-06T14:17:58.029Z,101413.91
2019-05-06T14:20:29.253Z,101420.00
2019-05-06T14:23:02.249Z,101415.69
2019-05-06T14:25:52.820Z,101417.55
2019-05-06T14:28:33.015Z,101415.41
2019-05-06T14:31:12.960Z,101415.22
2019-05-06T14:33:44.206Z,101411.05
2019-05-06T14:36:15.483Z,101416.48
2019-05-06T14:38:46.882Z,101413.56
2019-05-06T14:41:25.949Z,101415.23
2019-05-06T14:43:54.356Z,101421.80
2019-05-06T14:46:25.768Z,101418.78
2019-05-06T14:48:57.049Z,101416.78
2019-05-06T14:51:29.620Z,101412.56
2019-05-06T14:54:00.943Z,101417.08
2019-05-06T14:56:42.775Z,101407.64
2019-05-06T14:59:14.167Z,101406.77
2019-05-06T15:01:45.879Z,101406.37
2019-05-06T15:04:17.206Z,101397.17
2019-05-06T15:06:48.425Z,101408.55
2019-05-06T15:09:19.695Z,101409.30
2019-05-06T15:11:50.820Z,101417.33
2019-05-06T15:14:22.669Z,101411.59
2019-05-06T15:16:54.551Z,101409.38
2019-05-06T15:19:25.734Z,101413.70
2019-05-06T15:21:57.011Z,101415.19
2019-05-06T15:24:28.265Z,101410.77
2019-05-06T15:26:59.479Z,101415.63
2019-05-06T15:29:30.660Z,101403.70
2019-05-06T15:32:22.872Z,101408.28
2019-05-06T15:35:18.694Z,101398.97
2019-05-06T15:37:56.002Z,101401.09
2019-05-06T15:40:32.759Z,101400.20
2019-05-06T15:43:02.218Z,101406.41
2019-05-06T15:45:33.248Z,101400.08
2019-05-06T15:48:04.450Z,101397.25
2019-05-06T15:50:35.717Z,101400.22
2019-05-06T15:53:07.038Z,101406.55
2019-05-06T15:55:38.297Z,101408.82
2019-05-06T15:58:09.502Z,101412.26
2019-05-06T16:00:42.419Z,101411.26
2019-05-06T16:03:13.876Z,101409.59
2019-05-06T16:05:45.141Z,101405.56
2019-05-06T16:08:16.431Z,101408.37
2019-05-06T16:10:52.283Z,101413.83
2019-05-06T16:13:22.273Z,101403.42
2019-05-06T16:15:53.460Z,101406.46
2019-05-06T16:18:24.828Z,101398.79
2019-05-06T16:20:57.547Z,101410.95
2019-05-06T16:23:38.580Z,101400.88
2019-05-06T16:26:12.221Z,101402.78
2019-05-06T16:28:45.083Z,101403.63
2019-05-06T16:31:15.718Z,101390.02
2019-05-06T16:33:46.925Z,101397.53
2019-05-06T16:36:18.240Z,101400.34
2019-05-06T16:38:54.630Z,101393.45
2019-05-06T16:41:26.471Z,101394.33
2019-05-06T16:43:57.653Z,101384.21
2019-05-06T16:46:33.949Z,101379.17
2019-05-06T16:49:03.428Z,101377.55
2019-05-06T16:51:34.587Z,101372.31
2019-05-06T16:54:12.363Z,101364.38
2019-05-06T16:56:49.757Z,101368.50
2019-05-06T16:59:23.643Z,101362.09
2019-05-06T17:01:54.139Z,101361.33
2019-05-06T17:04:59.465Z,101365.72
2019-05-06T17:07:30.745Z,101373.53
2019-05-06T17:10:03.433Z,101368.09
2019-05-06T17:12:34.969Z,101362.16
2019-05-06T17:15:06.806Z,101366.87
2019-05-06T17:17:43.245Z,101367.47
2019-05-06T17:20:12.214Z,101372.52
2019-05-06T17:22:43.631Z,101362.09
2019-05-06T17:25:15.234Z,101365.52
2019-05-06T17:27:48.033Z,101368.42
2019-05-06T17:30:33.099Z,101358.25
2019-05-06T17:33:22.464Z,101359.27
2019-05-06T17:35:54.016Z,101365.85
2019-05-06T17:38:35.419Z,101367.26
2019-05-06T17:41:06.677Z,101366.58
2019-05-06T17:43:40.895Z,101363.41
2019-05-06T17:46:12.721Z,101366.34
2019-05-06T17:49:02.496Z,101367.88
2019-05-06T17:51:37.434Z,101365.05
2019-05-06T17:54:08.995Z,101370.91
2019-05-06T17:56:41.932Z,101367.88
2019-05-06T17:59:13.295Z,101365.69
2019-05-06T18:01:47.981Z,101368.09
2019-05-06T18:04:19.158Z,101365.30
2019-05-06T18:06:52.440Z,101367.48
2019-05-06T18:09:23.468Z,101366.03
2019-05-06T18:11:59.102Z,101364.10
2019-05-06T18:14:27.777Z,101363.27
2019-05-06T18:16:59.025Z,101363.77
2019-05-06T18:19:30.303Z,101362.22
2019-05-06T18:22:02.556Z,101369.67
2019-05-06T18:24:33.995Z,101367.94
2019-05-06T18:27:05.279Z,101373.50
2019-05-06T18:29:36.544Z,101369.37
2019-05-06T18:32:07.756Z,101375.06
2019-05-06T18:34:38.976Z,101375.42
2019-05-06T18:37:12.491Z,101375.35
2019-05-06T18:39:45.194Z,101377.80
2019-05-06T18:42:20.145Z,101377.80
2019-05-06T18:44:49.379Z,101383.40
2019-05-06T18:47:20.714Z,101382.64
2019-05-06T18:49:52.439Z,101382.20
2019-05-06T18:52:23.830Z,101383.83
2019-05-06T18:54:55.065Z,101380.41
2019-05-06T18:57:26.343Z,101377.89
2019-05-06T18:59:57.579Z,101375.09
2019-05-06T19:02:28.797Z,101377.75
2019-05-06T19:05:05.693Z,101377.67
2019-05-06T19:07:36.920Z,101373.26
2019-05-06T19:10:32.740Z,101376.33
2019-05-06T19:13:03.711Z,101382.19
2019-05-06T19:15:35.171Z,101389.39
2019-05-06T19:18:06.442Z,101393.67
2019-05-06T19:20:37.683Z,101389.60
2019-05-06T19:23:08.895Z,101395.47
2019-05-06T19:25:40.025Z,101402.16
2019-05-06T19:28:12.102Z,101401.52
2019-05-06T19:30:44.320Z,101407.55
2019-05-06T19:33:15.585Z,101409.30
2019-05-06T19:35:46.804Z,101415.64
2019-05-06T19:38:18.047Z,101410.12
2019-05-06T19:40:49.336Z,101415.46
2019-05-06T19:43:21.979Z,101415.59
2019-05-06T19:45:53.580Z,101421.24
2019-05-06T19:48:24.798Z,101425.42
2019-05-06T19:50:56.162Z,101422.52
2019-05-06T19:53:27.380Z,101423.08
2019-05-06T19:55:58.622Z,101427.70
2019-05-06T19:58:31.709Z,101424.19
2019-05-06T20:01:02.822Z,101428.73
2019-05-06T20:03:35.230Z,101429.86
2019-05-06T20:06:34.685Z,101425.36
2019-05-06T20:09:33.038Z,101430.12
2019-05-06T20:12:12.287Z,101428.53
2019-05-06T20:14:49.633Z,101438.86
2019-05-06T20:17:37.456Z,101437.66
2019-05-06T20:20:35.060Z,101446.70
2019-05-06T20:23:27.564Z,101443.33
2019-05-06T20:26:15.639Z,101445.78
2019-05-06T20:28:55.449Z,101442.88
2019-05-06T20:31:38.139Z,101438.89
2019-05-06T20:34:13.407Z,101430.17
2019-05-06T20:36:49.048Z,101435.63
2019-05-06T20:39:23.052Z,101433.30
2019-05-06T20:41:54.001Z,101440.12
2019-05-06T20:44:25.175Z,101441.56
2019-05-06T20:46:56.507Z,101443.97
2019-05-06T20:49:27.663Z,101443.52
2019-05-06T20:51:59.001Z,101453.17
2019-05-06T20:54:32.423Z,101449.25
2019-05-06T20:57:03.102Z,101447.84
2019-05-06T20:59:34.349Z,101445.83
2019-05-06T21:02:05.892Z,101448.84
2019-05-06T21:04:37.137Z,101446.30
2019-05-06T21:07:08.381Z,101449.30
2019-05-06T21:09:43.223Z,101450.05
2019-05-06T21:12:14.621Z,101449.88
2019-05-06T21:14:45.852Z,101448.04
2019-05-06T21:17:17.151Z,101455.25
2019-05-06T21:19:48.451Z,101452.23
2019-05-06T21:22:19.726Z,101452.52
2019-05-06T21:24:51.018Z,101448.39
2019-05-06T21:27:23.052Z,101453.69
2019-05-06T21:29:54.307Z,101445.32
2019-05-06T21:32:25.610Z,101446.16
2019-05-06T21:34:56.827Z,101443.28
2019-05-06T21:37:27.978Z,101441.95
2019-05-06T21:40:02.712Z,101445.28
2019-05-06T21:42:33.967Z,101443.22
2019-05-06T21:45:05.665Z,101448.58
2019-05-06T21:47:36.898Z,101444.90
2019-05-06T21:50:08.362Z,101446.45
2019-05-06T21:52:40.087Z,101438.69
2019-05-06T21:55:13.368Z,101439.67
2019-05-06T21:57:44.703Z,101442.00
2019-05-06T22:00:17.328Z,101444.24
2019-05-06T22:02:48.576Z,101442.42
2019-05-06T22:05:22.509Z,101443.30
2019-05-06T22:07:53.022Z,101438.16
2019-05-06T22:10:25.104Z,101439.80
2019-05-06T22:12:56.454Z,101439.02
2019-05-06T22:15:27.632Z,101443.23
2019-05-06T22:17:58.753Z,101438.81
2019-05-06T22:20:32.743Z,101433.06
2019-05-06T22:23:04.056Z,101438.72
2019-05-06T22:25:35.299Z,101429.84
2019-05-06T22:28:06.492Z,101434.88
2019-05-06T22:30:37.732Z,101428.52
2019-05-06T22:33:08.896Z,101429.66
2019-05-06T22:35:40.141Z,101435.00
2019-05-06T22:38:12.370Z,101436.84
2019-05-06T22:40:46.714Z,101430.26
2019-05-06T22:43:17.940Z,101427.38
2019-05-06T22:45:49.166Z,101431.59
2019-05-06T22:48:22.207Z,101426.77
2019-05-06T22:50:53.214Z,101428.70
2019-05-06T22:53:24.866Z,101425.08
2019-05-06T22:55:57.799Z,101428.02
2019-05-06T22:58:29.013Z,101423.55
2019-05-06T23:01:00.339Z,101425.61
2019-05-06T23:03:34.488Z,101427.33
2019-05-06T23:06:04.688Z,101429.13
2019-05-06T23:08:35.903Z,101431.55
2019-05-06T23:11:09.806Z,101434.42
2019-05-06T23:13:41.915Z,101438.52
2019-05-06T23:16:13.776Z,101433.72
2019-05-06T23:18:44.985Z,101435.62
2019-05-06T23:21:16.245Z,101441.31
2019-05-06T23:23:48.453Z,101432.98
2019-05-06T23:26:24.663Z,101432.52
2019-05-06T23:28:55.789Z,101440.19
2019-05-06T23:31:26.951Z,101437.53
2019-05-06T23:33:58.402Z,101436.25
2019-05-06T23:36:52.877Z,101439.48
2019-05-06T23:40:22.068Z,101432.67
2019-05-06T23:43:46.150Z,101432.33
2019-05-06T23:47:12.566Z,101431.51
2019-05-06T23:50:37.103Z,101434.16
2019-05-06T23:54:03.120Z,101433.56
2019-05-06T23:56:43.567Z,101425.54
2019-05-06T23:59:16.679Z,101429.51
